createdAt,value
2023-02-19T00:00:28.995Z,83.49
2023-02-19T00:01:32.825Z,83.83
2023-02-19T00:02:35.652Z,84.23
2023-02-19T00:03:38.810Z,84.47
2023-02-19T00:04:41.132Z,84.62
2023-02-19T00:05:43.723Z,84.69
2023-02-19T00:06:47.678Z,84.48
2023-02-19T00:07:50.276Z,84.70
2023-02-19T00:08:52.731Z,84.95
2023-02-19T00:09:54.897Z,84.96
2023-02-19T00:11:01.562Z,85.12
2023-02-19T00:12:04.081Z,85.18
2023-02-19T00:13:06.384Z,85.56
2023-02-19T00:14:09.396Z,85.52
2023-02-19T00:15:11.573Z,85.37
2023-02-19T00:16:21.872Z,85.52
2023-02-19T00:17:24.072Z,85.63
2023-02-19T00:18:26.304Z,85.87
2023-02-19T00:19:28.815Z,85.92
2023-02-19T00:20:30.992Z,85.78
2023-02-19T00:21:34.043Z,85.76
2023-02-19T00:22:36.435Z,85.90
2023-02-19T00:23:39.003Z,85.89
2023-02-19T00:24:41.860Z,85.95
2023-02-19T00:25:44.218Z,85.77
2023-02-19T00:26:47.487Z,85.64
2023-02-19T00:27:49.828Z,85.62
2023-02-19T00:28:53.552Z,85.34
2023-02-19T00:29:55.965Z,85.06
2023-02-19T00:31:27.591Z,84.98
2023-02-19T00:32:30.499Z,84.88
2023-02-19T00:33:32.716Z,84.92
2023-02-19T00:34:34.917Z,84.89
2023-02-19T00:35:37.639Z,84.69
2023-02-19T00:36:41.312Z,84.73
2023-02-19T00:37:43.734Z,84.70
2023-02-19T00:38:47.477Z,84.57
2023-02-19T00:39:49.786Z,84.44
2023-02-19T00:40:52.153Z,84.39
2023-02-19T00:41:54.367Z,84.50
2023-02-19T00:42:56.643Z,84.29
2023-02-19T00:44:04.426Z,83.96
2023-02-19T00:45:07.310Z,84.02
2023-02-19T00:46:09.532Z,84.29
2023-02-19T00:47:11.891Z,84.19
2023-02-19T00:48:14.878Z,84.77
2023-02-19T00:49:22.446Z,84.58
2023-02-19T00:50:24.806Z,84.81
2023-02-19T00:51:30.304Z,84.75
2023-02-19T00:52:32.726Z,84.88
2023-02-19T00:53:35.123Z,85.20
2023-02-19T00:54:37.374Z,85.31
2023-02-19T00:55:39.722Z,85.47
2023-02-19T00:56:42.509Z,85.55
2023-02-19T00:57:45.027Z,85.84
2023-02-19T00:58:48.012Z,86.14
2023-02-19T00:59:50.718Z,86.51
2023-02-19T01:00:52.903Z,86.36
2023-02-19T01:01:55.193Z,86.30
2023-02-19T01:02:57.831Z,86.59
2023-02-19T01:04:01.448Z,87.12
2023-02-19T01:05:04.130Z,87.46
2023-02-19T01:06:08.401Z,87.95
2023-02-19T01:07:10.845Z,88.06
2023-02-19T01:08:13.624Z,88.24
2023-02-19T01:09:16.026Z,88.14
2023-02-19T01:10:18.335Z,88.31
2023-02-19T01:11:20.716Z,88.35
2023-02-19T01:12:24.300Z,88.46
2023-02-19T01:13:27.020Z,88.41
2023-02-19T01:14:29.180Z,88.59
2023-02-19T01:15:33.069Z,88.52
2023-02-19T01:16:35.572Z,88.44
2023-02-19T01:17:38.058Z,88.50
2023-02-19T01:18:40.443Z,88.52
2023-02-19T01:19:42.819Z,88.37
2023-02-19T01:20:45.080Z,88.39
2023-02-19T01:21:47.269Z,88.48
2023-02-19T01:22:49.669Z,88.87
2023-02-19T01:23:53.987Z,89.11
2023-02-19T01:24:56.376Z,89.18
2023-02-19T01:25:58.736Z,89.18
2023-02-19T01:27:01.375Z,89.14
2023-02-19T01:28:04.193Z,89.27
2023-02-19T01:29:06.420Z,89.57
2023-02-19T01:30:10.598Z,89.23
2023-02-19T01:31:19.541Z,89.07
2023-02-19T01:32:21.834Z,88.81
2023-02-19T01:33:24.212Z,88.67
2023-02-19T01:34:27.060Z,88.65
2023-02-19T01:35:29.224Z,88.57
2023-02-19T01:36:33.737Z,88.37
2023-02-19T01:37:36.166Z,88.19
2023-02-19T01:38:38.701Z,87.92
2023-02-19T01:39:41.532Z,87.90
2023-02-19T01:40:43.703Z,87.91
2023-02-19T01:41:45.900Z,88.01
2023-02-19T01:42:48.348Z,88.00
2023-02-19T01:44:12.878Z,88.03
2023-02-19T01:45:29.480Z,88.16
2023-02-19T01:46:33.786Z,88.15
2023-02-19T01:47:36.022Z,87.88
2023-02-19T01:48:39.769Z,87.76
2023-02-19T01:49:51.392Z,87.52
2023-02-19T01:51:06.079Z,87.38
2023-02-19T01:52:25.856Z,87.04
2023-02-19T01:53:34.010Z,87.17
2023-02-19T01:54:41.440Z,86.98
2023-02-19T01:55:47.183Z,87.01
2023-02-19T01:56:50.523Z,86.95
2023-02-19T01:57:55.519Z,86.79
2023-02-19T01:58:59.166Z,86.77
2023-02-19T02:00:12.093Z,86.46
2023-02-19T02:01:16.920Z,86.43
2023-02-19T02:02:19.237Z,86.51
2023-02-19T02:03:21.869Z,86.41
2023-02-19T02:04:24.335Z,86.31
2023-02-19T02:05:49.131Z,86.16
2023-02-19T02:06:56.642Z,85.91
2023-02-19T02:08:19.553Z,85.99
2023-02-19T02:09:46.723Z,86.19
2023-02-19T02:10:50.103Z,86.30
2023-02-19T02:11:53.310Z,86.20
2023-02-19T02:12:58.557Z,86.22
2023-02-19T02:14:03.055Z,86.28
2023-02-19T02:15:06.213Z,86.49
2023-02-19T02:16:42.901Z,86.30
2023-02-19T02:18:02.632Z,86.48
2023-02-19T02:19:23.843Z,86.43
2023-02-19T02:20:29.234Z,86.24
2023-02-19T02:21:47.765Z,86.21
2023-02-19T02:23:03.739Z,86.42
2023-02-19T02:24:39.444Z,86.26
2023-02-19T02:26:08.559Z,86.24
2023-02-19T02:27:30.974Z,86.19
2023-02-19T02:28:53.371Z,86.23
2023-02-19T02:30:20.002Z,86.15
2023-02-19T02:31:42.916Z,86.19
2023-02-19T02:33:04.716Z,86.18
2023-02-19T02:34:12.865Z,85.81
2023-02-19T02:35:19.283Z,85.85
2023-02-19T02:36:32.884Z,85.05
2023-02-19T02:37:39.266Z,84.88
2023-02-19T02:38:44.277Z,85.13
2023-02-19T02:39:47.395Z,85.18
2023-02-19T02:40:50.081Z,85.15
2023-02-19T02:42:17.015Z,85.26
2023-02-19T02:43:25.998Z,85.25
2023-02-19T02:45:02.935Z,84.92
2023-02-19T02:46:10.513Z,84.42
2023-02-19T02:47:33.150Z,84.37
2023-02-19T02:48:41.717Z,84.04
2023-02-19T02:50:04.704Z,84.06
2023-02-19T02:51:20.275Z,84.41
2023-02-19T02:52:57.809Z,84.68
2023-02-19T02:54:25.507Z,84.98
2023-02-19T02:55:34.607Z,84.83
2023-02-19T02:56:37.466Z,84.00
2023-02-19T02:57:40.503Z,83.54
2023-02-19T02:58:44.001Z,83.34
2023-02-19T02:59:49.091Z,83.17
2023-02-19T03:01:25.994Z,83.19
2023-02-19T03:02:31.257Z,83.59
2023-02-19T03:03:37.285Z,83.84
2023-02-19T03:05:04.052Z,84.06
2023-02-19T03:06:11.230Z,84.25
2023-02-19T03:07:13.603Z,84.22
2023-02-19T03:08:25.831Z,84.24
2023-02-19T03:09:40.690Z,83.62
2023-02-19T03:10:49.124Z,83.82
2023-02-19T03:12:11.589Z,84.13
2023-02-19T03:13:49.473Z,84.30
2023-02-19T03:15:16.114Z,83.91
2023-02-19T03:16:45.043Z,83.81
2023-02-19T03:18:14.149Z,84.15
2023-02-19T03:19:20.341Z,84.36
2023-02-19T03:20:25.316Z,84.52
2023-02-19T03:21:29.170Z,84.61
2023-02-19T03:22:34.605Z,84.72
2023-02-19T03:23:57.065Z,84.65
2023-02-19T03:25:28.617Z,84.69
2023-02-19T03:26:33.615Z,84.92
2023-02-19T03:27:39.115Z,84.67
2023-02-19T03:29:02.320Z,84.74
2023-02-19T03:30:17.978Z,84.47
2023-02-19T03:31:24.753Z,84.47
2023-02-19T03:32:43.520Z,84.39
2023-02-19T03:33:50.466Z,84.37
2023-02-19T03:35:00.161Z,84.42
2023-02-19T03:36:07.356Z,84.39
2023-02-19T03:37:15.569Z,84.95
2023-02-19T03:38:30.008Z,84.87
2023-02-19T03:39:33.277Z,84.86
2023-02-19T03:40:48.141Z,84.90
2023-02-19T03:42:15.445Z,85.36
2023-02-19T03:43:24.714Z,85.80
2023-02-19T03:44:48.132Z,85.77
2023-02-19T03:46:08.372Z,85.76
2023-02-19T03:47:26.584Z,85.15
2023-02-19T03:48:38.461Z,85.76
2023-02-19T03:49:56.729Z,85.99
2023-02-19T03:51:12.990Z,86.30
2023-02-19T03:52:19.401Z,86.44
2023-02-19T03:53:38.097Z,86.35
2023-02-19T03:55:01.065Z,86.34
2023-02-19T03:56:10.325Z,86.32
2023-02-19T03:57:20.938Z,85.92
2023-02-19T03:59:01.309Z,86.12
2023-02-19T04:00:15.786Z,86.51
2023-02-19T04:01:30.844Z,86.74
2023-02-19T04:02:41.520Z,86.53
2023-02-19T04:03:54.356Z,86.36
2023-02-19T04:05:14.255Z,86.12
2023-02-19T04:06:28.295Z,85.89
2023-02-19T04:07:34.946Z,86.05
2023-02-19T04:08:40.050Z,85.91
2023-02-19T04:09:48.304Z,86.02
2023-02-19T04:10:55.015Z,85.80
2023-02-19T04:12:02.047Z,85.72
2023-02-19T04:13:11.480Z,85.95
2023-02-19T04:14:20.223Z,85.65
2023-02-19T04:15:28.586Z,85.63
2023-02-19T04:16:34.774Z,85.70
2023-02-19T04:17:47.496Z,85.33
2023-02-19T04:18:54.814Z,85.41
2023-02-19T04:19:59.163Z,85.28
2023-02-19T04:21:03.408Z,85.46
2023-02-19T04:22:08.248Z,85.91
2023-02-19T04:23:12.222Z,85.92
2023-02-19T04:24:25.255Z,86.02
2023-02-19T04:25:29.275Z,85.78
2023-02-19T04:26:33.724Z,85.84
2023-02-19T04:27:38.516Z,85.80
2023-02-19T04:28:43.036Z,85.38
2023-02-19T04:29:45.488Z,85.27
2023-02-19T04:30:47.796Z,85.14
2023-02-19T04:31:50.344Z,84.95
2023-02-19T04:32:52.547Z,85.19
2023-02-19T04:33:54.749Z,85.57
2023-02-19T04:34:56.935Z,85.95
2023-02-19T04:35:59.140Z,86.12
2023-02-19T04:37:01.302Z,85.87
2023-02-19T04:38:03.613Z,85.81
2023-02-19T04:39:05.761Z,85.37
2023-02-19T04:40:08.845Z,84.98
2023-02-19T04:41:11.350Z,85.10
2023-02-19T04:42:13.730Z,85.32
2023-02-19T04:43:16.104Z,85.58
2023-02-19T04:44:18.290Z,85.40
2023-02-19T04:45:20.687Z,85.32
2023-02-19T04:46:22.942Z,85.31
2023-02-19T04:47:25.108Z,84.95
2023-02-19T04:48:27.786Z,85.00
2023-02-19T04:49:30.142Z,85.01
2023-02-19T04:50:32.527Z,84.90
2023-02-19T04:51:34.940Z,85.16
2023-02-19T04:52:37.335Z,85.25
2023-02-19T04:53:39.579Z,85.52
2023-02-19T04:54:41.924Z,85.46
2023-02-19T04:55:44.536Z,85.57
2023-02-19T04:56:46.708Z,85.64
2023-02-19T04:57:49.113Z,85.89
2023-02-19T04:58:51.426Z,85.95
2023-02-19T04:59:53.797Z,85.93
2023-02-19T05:00:56.611Z,85.67
2023-02-19T05:01:58.912Z,85.73
2023-02-19T05:03:01.975Z,85.80
2023-02-19T05:04:04.996Z,86.09
2023-02-19T05:05:07.496Z,85.62
2023-02-19T05:06:13.092Z,85.43
2023-02-19T05:07:15.426Z,85.21
2023-02-19T05:08:17.827Z,85.23
2023-02-19T05:09:20.190Z,85.12
2023-02-19T05:10:22.371Z,85.19
2023-02-19T05:11:24.820Z,85.20
2023-02-19T05:12:27.077Z,85.18
2023-02-19T05:13:29.994Z,85.06
2023-02-19T05:14:32.193Z,84.89
2023-02-19T05:15:34.614Z,84.76
2023-02-19T05:16:37.008Z,84.66
2023-02-19T05:17:39.211Z,84.66
2023-02-19T05:18:42.820Z,84.49
2023-02-19T05:19:44.981Z,84.60
2023-02-19T05:20:47.323Z,84.84
2023-02-19T05:21:49.662Z,84.64
2023-02-19T05:22:51.853Z,84.54
2023-02-19T05:23:54.217Z,84.50
2023-02-19T05:24:56.480Z,84.31
2023-02-19T05:25:58.652Z,84.17
2023-02-19T05:27:01.257Z,84.04
2023-02-19T05:28:18.751Z,83.92
2023-02-19T05:29:20.967Z,83.97
2023-02-19T05:30:23.388Z,83.86
2023-02-19T05:31:25.725Z,84.16
2023-02-19T05:32:27.923Z,84.25
2023-02-19T05:33:30.120Z,83.90
2023-02-19T05:34:32.356Z,84.34
2023-02-19T05:35:34.532Z,84.48
2023-02-19T05:36:37.967Z,84.51
2023-02-19T05:37:40.178Z,84.30
2023-02-19T05:38:42.599Z,84.15
2023-02-19T05:39:44.990Z,84.19
2023-02-19T05:40:47.538Z,84.58
2023-02-19T05:41:49.715Z,84.51
2023-02-19T05:42:51.886Z,84.81
2023-02-19T05:43:55.082Z,84.94
2023-02-19T05:44:57.502Z,85.10
2023-02-19T05:45:59.657Z,85.22
2023-02-19T05:47:01.810Z,85.06
2023-02-19T05:48:05.464Z,84.18
2023-02-19T05:49:07.708Z,84.03
2023-02-19T05:50:09.923Z,83.71
2023-02-19T05:51:15.092Z,83.84
2023-02-19T05:52:17.453Z,83.69
2023-02-19T05:53:19.619Z,83.81
2023-02-19T05:54:21.983Z,83.96
2023-02-19T05:55:24.206Z,83.92
2023-02-19T05:56:26.338Z,84.02
2023-02-19T05:57:28.883Z,84.64
2023-02-19T05:58:31.065Z,84.86
2023-02-19T05:59:33.414Z,84.95
2023-02-19T06:00:35.797Z,84.62
2023-02-19T06:01:38.409Z,84.68
2023-02-19T06:02:41.029Z,85.02
2023-02-19T06:03:43.305Z,84.75
2023-02-19T06:04:45.569Z,84.84
2023-02-19T06:05:47.879Z,84.65
2023-02-19T06:06:50.764Z,84.61
2023-02-19T06:07:53.221Z,84.16
2023-02-19T06:08:55.842Z,84.45
2023-02-19T06:09:58.227Z,84.72
2023-02-19T06:11:00.395Z,84.74
2023-02-19T06:12:02.778Z,84.86
2023-02-19T06:13:05.171Z,84.35
2023-02-19T06:14:07.595Z,84.37
2023-02-19T06:15:09.819Z,84.07
2023-02-19T06:16:12.318Z,83.83
2023-02-19T06:17:15.504Z,83.76
2023-02-19T06:18:17.661Z,83.48
2023-02-19T06:19:19.873Z,83.79
2023-02-19T06:20:22.293Z,83.95
2023-02-19T06:21:24.463Z,84.11
2023-02-19T06:22:28.056Z,83.65
2023-02-19T06:23:30.840Z,83.63
2023-02-19T06:24:33.557Z,83.84
2023-02-19T06:25:35.743Z,83.99
2023-02-19T06:26:38.528Z,83.45
2023-02-19T06:27:41.133Z,84.55
2023-02-19T06:28:44.303Z,84.84
2023-02-19T06:29:48.669Z,84.81
2023-02-19T06:30:51.656Z,84.78
2023-02-19T06:31:53.968Z,85.17
2023-02-19T06:32:56.761Z,85.24
2023-02-19T06:33:59.008Z,85.39
2023-02-19T06:35:01.230Z,84.85
2023-02-19T06:36:04.509Z,84.82
2023-02-19T06:37:06.755Z,84.69
2023-02-19T06:38:09.119Z,84.71
2023-02-19T06:39:11.341Z,84.54
2023-02-19T06:40:13.551Z,84.16
2023-02-19T06:41:16.180Z,83.31
2023-02-19T06:42:19.218Z,83.24
2023-02-19T06:43:21.750Z,82.90
2023-02-19T06:44:24.751Z,82.62
2023-02-19T06:45:27.165Z,82.84
2023-02-19T06:46:29.440Z,82.74
2023-02-19T06:47:32.973Z,82.68
2023-02-19T06:48:35.979Z,82.64
2023-02-19T06:49:40.243Z,82.46
2023-02-19T06:50:42.435Z,82.34
2023-02-19T06:51:44.775Z,82.48
2023-02-19T06:52:46.944Z,82.17
2023-02-19T06:53:49.491Z,81.50
2023-02-19T06:54:51.697Z,81.23
2023-02-19T06:56:05.445Z,81.72
2023-02-19T06:57:07.812Z,82.25
2023-02-19T06:58:10.596Z,82.23
2023-02-19T06:59:16.878Z,82.14
2023-02-19T07:00:19.365Z,81.85
2023-02-19T07:01:23.095Z,81.55
2023-02-19T07:02:25.323Z,81.37
2023-02-19T07:03:28.111Z,81.37
2023-02-19T07:04:30.388Z,81.24
2023-02-19T07:05:32.658Z,81.24
2023-02-19T07:06:35.834Z,81.42
2023-02-19T07:07:38.042Z,81.31
2023-02-19T07:08:40.646Z,81.14
2023-02-19T07:09:42.807Z,81.47
2023-02-19T07:10:45.680Z,81.27
2023-02-19T07:11:47.886Z,81.17
2023-02-19T07:12:50.233Z,81.06
2023-02-19T07:13:56.904Z,80.93
2023-02-19T07:14:59.208Z,81.59
2023-02-19T07:16:03.592Z,81.24
2023-02-19T07:17:05.813Z,80.73
2023-02-19T07:18:10.502Z,80.19
2023-02-19T07:19:13.340Z,79.85
2023-02-19T07:20:15.544Z,79.87
2023-02-19T07:21:19.143Z,80.21
2023-02-19T07:22:21.345Z,80.45
2023-02-19T07:23:23.761Z,80.59
2023-02-19T07:24:25.993Z,80.93
2023-02-19T07:25:28.164Z,81.12
2023-02-19T07:26:30.532Z,81.06
2023-02-19T07:27:32.949Z,81.06
2023-02-19T07:28:35.411Z,80.88
2023-02-19T07:29:37.635Z,81.23
2023-02-19T07:30:40.120Z,80.98
2023-02-19T07:31:43.245Z,81.29
2023-02-19T07:32:45.653Z,81.52
2023-02-19T07:33:48.515Z,81.73
2023-02-19T07:34:50.683Z,81.80
2023-02-19T07:35:53.090Z,81.49
2023-02-19T07:36:55.245Z,81.61
2023-02-19T07:37:57.429Z,81.75
2023-02-19T07:39:00.615Z,81.72
2023-02-19T07:40:03.602Z,81.60
2023-02-19T07:41:06.895Z,81.66
2023-02-19T07:42:09.292Z,81.53
2023-02-19T07:43:13.262Z,81.41
2023-02-19T07:44:16.991Z,81.58
2023-02-19T07:45:19.236Z,81.36
2023-02-19T07:46:22.326Z,82.10
2023-02-19T07:47:24.495Z,81.89
2023-02-19T07:48:26.844Z,81.97
2023-02-19T07:49:29.228Z,82.03
2023-02-19T07:50:31.469Z,81.96
2023-02-19T07:51:33.690Z,81.57
2023-02-19T07:52:36.036Z,81.55
2023-02-19T07:53:38.326Z,81.24
2023-02-19T07:54:40.878Z,81.00
2023-02-19T07:55:43.050Z,80.90
2023-02-19T07:56:45.231Z,80.94
2023-02-19T07:57:47.589Z,81.15
2023-02-19T07:58:49.806Z,80.82
2023-02-19T07:59:52.454Z,80.62
2023-02-19T08:00:54.645Z,80.45
2023-02-19T08:02:15.144Z,80.30
2023-02-19T08:03:17.547Z,80.43
2023-02-19T08:04:19.784Z,80.66
2023-02-19T08:05:22.066Z,80.85
2023-02-19T08:06:24.426Z,80.69
2023-02-19T08:07:34.526Z,80.88
2023-02-19T08:08:37.861Z,80.78
2023-02-19T08:09:40.476Z,80.89
2023-02-19T08:11:01.397Z,80.47
2023-02-19T08:12:22.531Z,80.59
2023-02-19T08:13:27.428Z,79.53
2023-02-19T08:14:29.517Z,80.03
2023-02-19T08:15:33.135Z,80.17
2023-02-19T08:16:43.043Z,80.06
2023-02-19T08:17:45.901Z,80.09
2023-02-19T08:18:48.563Z,79.92
2023-02-19T08:19:50.955Z,79.86
2023-02-19T08:20:55.202Z,79.25
2023-02-19T08:21:57.370Z,79.85
2023-02-19T08:22:59.584Z,79.79
2023-02-19T08:24:01.741Z,80.00
2023-02-19T08:25:03.968Z,80.02
2023-02-19T08:26:07.081Z,79.95
2023-02-19T08:27:09.264Z,80.21
2023-02-19T08:28:12.004Z,80.43
2023-02-19T08:29:14.271Z,80.04
2023-02-19T08:30:16.652Z,80.31
2023-02-19T08:31:19.141Z,80.59
2023-02-19T08:32:21.436Z,80.58
2023-02-19T08:33:23.582Z,80.69
2023-02-19T08:34:25.797Z,80.64
2023-02-19T08:35:28.874Z,80.39
2023-02-19T08:36:31.187Z,80.24
2023-02-19T08:37:33.349Z,79.89
2023-02-19T08:38:36.810Z,79.79
2023-02-19T08:39:39.019Z,79.94
2023-02-19T08:40:41.626Z,79.54
2023-02-19T08:41:43.894Z,79.56
2023-02-19T08:42:46.255Z,79.00
2023-02-19T08:43:48.452Z,78.75
2023-02-19T08:44:50.864Z,78.52
2023-02-19T08:45:55.096Z,78.46
2023-02-19T08:46:57.308Z,77.80
2023-02-19T08:48:00.367Z,77.78
2023-02-19T08:49:02.862Z,77.01
2023-02-19T08:50:06.919Z,76.77
2023-02-19T08:51:11.569Z,76.38
2023-02-19T08:52:14.209Z,76.34
2023-02-19T08:53:16.374Z,76.32
2023-02-19T08:54:18.668Z,76.48
2023-02-19T08:55:21.044Z,76.99
2023-02-19T08:56:23.583Z,77.07
2023-02-19T08:57:26.886Z,76.51
2023-02-19T08:58:29.040Z,76.35
2023-02-19T08:59:31.968Z,76.42
2023-02-19T09:00:34.507Z,76.18
2023-02-19T09:01:36.848Z,76.77
2023-02-19T09:02:42.432Z,76.46
2023-02-19T09:03:45.741Z,76.43
2023-02-19T09:04:48.337Z,76.52
2023-02-19T09:05:50.665Z,76.08
2023-02-19T09:06:53.020Z,76.49
2023-02-19T09:07:55.488Z,76.62
2023-02-19T09:08:57.696Z,76.01
2023-02-19T09:10:00.757Z,76.06
2023-02-19T09:11:04.971Z,75.75
2023-02-19T09:12:08.461Z,75.58
2023-02-19T09:13:10.975Z,76.24
2023-02-19T09:14:13.380Z,75.94
2023-02-19T09:15:15.603Z,75.68
2023-02-19T09:16:17.796Z,74.96
2023-02-19T09:17:22.666Z,75.06
2023-02-19T09:18:25.693Z,74.53
2023-02-19T09:19:28.660Z,73.44
2023-02-19T09:20:30.899Z,73.88
2023-02-19T09:21:33.112Z,74.17
2023-02-19T09:22:35.479Z,74.33
2023-02-19T09:23:38.217Z,73.68
2023-02-19T09:24:40.788Z,73.76
2023-02-19T09:25:43.000Z,73.71
2023-02-19T09:26:45.347Z,74.53
2023-02-19T09:27:47.716Z,75.07
2023-02-19T09:28:49.890Z,74.27
2023-02-19T09:29:52.486Z,74.64
2023-02-19T09:30:54.986Z,74.59
2023-02-19T09:32:00.955Z,74.66
2023-02-19T09:33:05.552Z,74.53
2023-02-19T09:34:08.245Z,74.17
2023-02-19T09:35:10.796Z,73.92
2023-02-19T09:36:14.416Z,73.91
2023-02-19T09:37:16.589Z,73.09
2023-02-19T09:38:18.997Z,73.16
2023-02-19T09:39:21.816Z,73.48
2023-02-19T09:40:24.215Z,72.84
2023-02-19T09:41:32.370Z,72.76
2023-02-19T09:42:34.571Z,72.25
2023-02-19T09:43:37.621Z,72.92
2023-02-19T09:44:43.487Z,73.37
2023-02-19T09:45:46.304Z,73.42
2023-02-19T09:46:51.568Z,73.79
2023-02-19T09:47:58.002Z,74.03
2023-02-19T09:49:13.152Z,72.53
2023-02-19T09:50:22.848Z,72.36
2023-02-19T09:51:29.542Z,72.34
2023-02-19T09:52:56.944Z,72.46
2023-02-19T09:53:59.651Z,72.48
2023-02-19T09:55:13.309Z,72.79
2023-02-19T09:56:16.183Z,72.57
2023-02-19T09:57:21.423Z,72.54
2023-02-19T09:58:25.719Z,72.26
2023-02-19T09:59:40.657Z,70.67
2023-02-19T10:00:43.352Z,70.89
2023-02-19T10:01:49.297Z,68.98
2023-02-19T10:02:55.045Z,69.30
2023-02-19T10:03:57.842Z,69.16
2023-02-19T10:05:01.658Z,68.54
2023-02-19T10:06:14.221Z,69.03
2023-02-19T10:07:23.729Z,70.01
2023-02-19T10:08:26.197Z,70.11
2023-02-19T10:09:30.648Z,70.07
2023-02-19T10:10:35.349Z,69.50
2023-02-19T10:11:37.756Z,69.24
2023-02-19T10:12:45.720Z,69.67
2023-02-19T10:13:51.661Z,68.96
2023-02-19T10:15:01.577Z,69.12
2023-02-19T10:16:06.817Z,69.60
2023-02-19T10:17:21.992Z,69.18
2023-02-19T10:18:28.375Z,69.18
2023-02-19T10:19:31.480Z,69.29
2023-02-19T10:20:34.114Z,68.26
2023-02-19T10:21:38.343Z,67.91
2023-02-19T10:22:40.595Z,68.58
2023-02-19T10:23:44.269Z,68.19
2023-02-19T10:24:51.794Z,68.34
2023-02-19T10:25:57.242Z,67.84
2023-02-19T10:27:00.870Z,68.37
2023-02-19T10:28:04.346Z,68.05
2023-02-19T10:29:06.981Z,68.08
2023-02-19T10:30:31.481Z,67.68
2023-02-19T10:31:33.713Z,66.60
2023-02-19T10:32:36.026Z,67.32
2023-02-19T10:33:52.717Z,67.62
2023-02-19T10:35:15.453Z,67.00
2023-02-19T10:36:25.027Z,66.32
2023-02-19T10:37:29.523Z,67.29
2023-02-19T10:38:35.701Z,67.28
2023-02-19T10:39:45.384Z,67.64
2023-02-19T10:40:48.629Z,67.59
2023-02-19T10:41:51.655Z,67.30
2023-02-19T10:42:59.612Z,67.38
2023-02-19T10:44:07.069Z,68.30
2023-02-19T10:45:19.084Z,68.46
2023-02-19T10:46:28.426Z,68.24
2023-02-19T10:47:33.332Z,68.33
2023-02-19T10:48:40.847Z,67.95
2023-02-19T10:49:46.460Z,67.66
2023-02-19T10:50:58.244Z,67.50
2023-02-19T10:52:10.817Z,67.82
2023-02-19T10:53:23.993Z,67.16
2023-02-19T10:54:30.236Z,66.63
2023-02-19T10:55:37.798Z,66.95
2023-02-19T10:56:41.414Z,66.92
2023-02-19T10:57:43.589Z,66.91
2023-02-19T10:58:47.472Z,66.83
2023-02-19T11:00:23.203Z,67.03
2023-02-19T11:01:29.262Z,67.12
2023-02-19T11:02:31.855Z,66.93
2023-02-19T11:03:34.234Z,66.72
2023-02-19T11:04:38.297Z,66.60
2023-02-19T11:05:52.551Z,65.86
2023-02-19T11:06:55.241Z,65.75
2023-02-19T11:07:57.755Z,64.98
2023-02-19T11:09:01.375Z,64.78
2023-02-19T11:10:05.758Z,65.11
2023-02-19T11:11:08.004Z,65.61
2023-02-19T11:12:11.792Z,65.96
2023-02-19T11:13:18.707Z,65.43
2023-02-19T11:14:25.105Z,65.73
2023-02-19T11:15:31.241Z,65.28
2023-02-19T11:16:44.871Z,64.59
2023-02-19T11:17:56.737Z,63.97
2023-02-19T11:18:59.257Z,63.38
2023-02-19T11:20:14.324Z,63.43
2023-02-19T11:21:33.069Z,63.76
2023-02-19T11:22:41.979Z,64.20
2023-02-19T11:23:46.642Z,64.30
2023-02-19T11:24:54.566Z,63.83
2023-02-19T11:26:03.499Z,64.24
2023-02-19T11:27:16.337Z,63.39
2023-02-19T11:28:37.039Z,63.18
2023-02-19T11:29:39.695Z,62.97
2023-02-19T11:30:43.704Z,62.92
2023-02-19T11:31:46.453Z,62.72
2023-02-19T11:32:48.765Z,62.96
2023-02-19T11:33:56.335Z,62.77
2023-02-19T11:35:25.730Z,62.88
2023-02-19T11:36:38.457Z,63.00
2023-02-19T11:38:13.800Z,62.59
2023-02-19T11:39:30.746Z,63.21
2023-02-19T11:41:15.402Z,63.49
2023-02-19T11:42:29.038Z,63.77
2023-02-19T11:43:44.648Z,63.38
2023-02-19T11:45:12.753Z,63.65
2023-02-19T11:46:32.754Z,64.00
2023-02-19T11:47:53.149Z,63.72
2023-02-19T11:49:13.741Z,63.58
2023-02-19T11:50:27.670Z,63.62
2023-02-19T11:51:47.569Z,63.68
2023-02-19T11:53:21.847Z,63.50
2023-02-19T11:54:26.624Z,63.43
2023-02-19T11:55:53.457Z,63.80
2023-02-19T11:57:33.586Z,63.75
2023-02-19T11:58:43.037Z,62.84
2023-02-19T12:00:09.446Z,63.04
2023-02-19T12:01:44.860Z,62.62
2023-02-19T12:03:05.876Z,62.49
2023-02-19T12:04:17.065Z,62.69
2023-02-19T12:05:34.758Z,62.76
2023-02-19T12:06:55.181Z,62.57
2023-02-19T12:08:28.282Z,62.91
2023-02-19T12:09:45.611Z,63.17
2023-02-19T12:11:09.548Z,63.48
2023-02-19T12:12:32.659Z,63.26
2023-02-19T12:13:56.746Z,63.36
2023-02-19T12:15:22.515Z,63.15
2023-02-19T12:16:30.814Z,62.60
2023-02-19T12:18:15.879Z,63.00
2023-02-19T12:19:40.224Z,62.74
2023-02-19T12:21:22.995Z,62.51
2023-02-19T12:22:34.012Z,61.12
2023-02-19T12:23:48.813Z,61.30
2023-02-19T12:25:16.334Z,60.67
2023-02-19T12:26:27.675Z,60.98
2023-02-19T12:27:48.798Z,60.28
2023-02-19T12:29:36.011Z,59.99
2023-02-19T12:30:59.665Z,59.85
2023-02-19T12:32:31.091Z,59.40
2023-02-19T12:33:46.907Z,59.49
2023-02-19T12:35:15.850Z,59.69
2023-02-19T12:36:46.616Z,58.50
2023-02-19T12:38:05.619Z,58.28
2023-02-19T12:39:08.234Z,57.92
2023-02-19T12:40:28.064Z,58.52
2023-02-19T12:41:35.863Z,58.30
2023-02-19T12:42:44.122Z,58.28
2023-02-19T12:43:58.869Z,57.97
2023-02-19T12:45:11.049Z,58.40
2023-02-19T12:46:22.217Z,58.14
2023-02-19T12:47:41.086Z,57.73
2023-02-19T12:48:53.363Z,57.90
2023-02-19T12:50:23.324Z,57.39
2023-02-19T12:51:38.997Z,56.72
2023-02-19T12:52:46.526Z,56.69
2023-02-19T12:53:58.798Z,56.58
2023-02-19T12:55:17.171Z,56.34
2023-02-19T12:56:28.853Z,56.01
2023-02-19T12:57:37.072Z,55.90
2023-02-19T12:58:50.607Z,55.18
2023-02-19T13:00:18.872Z,55.00
2023-02-19T13:01:28.097Z,55.13
2023-02-19T13:02:38.998Z,55.25
2023-02-19T13:03:49.337Z,55.50
2023-02-19T13:05:11.257Z,55.47
2023-02-19T13:06:36.431Z,55.36
2023-02-19T13:07:47.406Z,54.85
2023-02-19T13:09:06.609Z,55.29
2023-02-19T13:10:53.802Z,55.52
2023-02-19T13:11:55.988Z,55.67
2023-02-19T13:13:04.834Z,55.77
2023-02-19T13:14:27.312Z,55.73
2023-02-19T13:15:37.205Z,55.50
2023-02-19T13:16:45.911Z,55.32
2023-02-19T13:17:53.966Z,55.52
2023-02-19T13:19:00.269Z,54.90
2023-02-19T13:20:27.672Z,55.23
2023-02-19T13:21:55.489Z,54.72
2023-02-19T13:23:16.386Z,54.05
2023-02-19T13:24:30.652Z,53.49
2023-02-19T13:26:15.054Z,53.97
2023-02-19T13:27:45.147Z,53.96
2023-02-19T13:29:12.544Z,54.20
2023-02-19T13:30:38.304Z,54.84
2023-02-19T13:32:11.305Z,54.57
2023-02-19T13:33:34.778Z,54.75
2023-02-19T13:34:49.120Z,54.42
2023-02-19T13:36:06.334Z,54.39
2023-02-19T13:37:10.180Z,54.05
2023-02-19T13:38:13.775Z,53.68
2023-02-19T13:39:19.609Z,53.48
2023-02-19T13:40:35.030Z,53.73
2023-02-19T13:41:50.895Z,53.51
2023-02-19T13:42:59.803Z,53.58
2023-02-19T13:44:05.830Z,53.45
2023-02-19T13:45:23.342Z,53.45
2023-02-19T13:46:33.191Z,53.19
2023-02-19T13:47:59.912Z,53.11
2023-02-19T13:49:39.870Z,53.63
2023-02-19T13:50:42.683Z,53.50
2023-02-19T13:51:51.547Z,53.75
2023-02-19T13:52:55.251Z,53.62
2023-02-19T13:54:00.223Z,53.50
2023-02-19T13:55:42.319Z,53.81
2023-02-19T13:56:44.984Z,54.08
2023-02-19T13:57:47.355Z,53.69
2023-02-19T13:58:54.317Z,53.99
2023-02-19T13:59:57.987Z,54.38
2023-02-19T14:01:11.589Z,54.07
2023-02-19T14:02:26.779Z,53.73
2023-02-19T14:03:51.981Z,53.51
2023-02-19T14:05:00.495Z,53.94
2023-02-19T14:06:06.433Z,53.56
2023-02-19T14:07:20.972Z,53.74
2023-02-19T14:08:58.441Z,53.77
2023-02-19T14:10:01.916Z,53.90
2023-02-19T14:11:05.121Z,54.41
2023-02-19T14:12:07.901Z,54.52
2023-02-19T14:13:10.084Z,54.69
2023-02-19T14:14:25.775Z,55.04
2023-02-19T14:15:37.051Z,54.93
2023-02-19T14:16:39.216Z,54.85
2023-02-19T14:17:45.992Z,55.04
2023-02-19T14:18:50.417Z,54.53
2023-02-19T14:19:56.968Z,55.06
2023-02-19T14:21:15.267Z,55.00
2023-02-19T14:23:01.678Z,54.93
2023-02-19T14:24:05.438Z,54.63
2023-02-19T14:25:31.093Z,54.93
2023-02-19T14:26:34.595Z,54.33
2023-02-19T14:27:38.516Z,54.42
2023-02-19T14:28:45.444Z,54.42
2023-02-19T14:29:48.663Z,54.95
2023-02-19T14:30:50.829Z,54.94
2023-02-19T14:31:53.352Z,54.81
2023-02-19T14:33:09.745Z,54.84
2023-02-19T14:34:25.188Z,54.61
2023-02-19T14:35:37.559Z,54.46